Delta Virtual Airport Information Service

New York LaGuardia Airport

ICAO: KLGA Country: United States
Latitude: 40.7772 Longitude: -73.8726
Latest Arrival : FFT1510 (KATL-KLGA) Latest Departure : ACA2339 (1B) (KLGA-CYYZ)


WX CaptureLIVE
Data provided by noaa.gov | Fetched at 07:21:50

METAR : KLGA 061251Z 30019G24KT 10SM BKN045 BKN055 01/M09 A3004 RMK AO2 SLP171 T00061089

TAF : KLGA 061130Z 0612/0718 29010G19KT P6SM SCT050 FM061500 30016G22KT P6SM BKN040 FM070000 31009KT P6SM BKN040 FM070800 31006KT P6SM FEW250


Runway Data for KLGA
Data provided by openaviationdata.com

Runway ID Mag Var Hdg Length Elevation Surface ILS Freq ILS Id ILS Slope
4 -13 45° 7000 ft 22 ft Asphalt 110.5 ILGA 3
13 -13 135° 6994 ft 22 ft Asphalt 108.5 IGDI 3
22 -13 225° 7000 ft 22 ft Asphalt 110.5 IURD 3
31 -13 315° 6994 ft 22 ft Asphalt 108.5 IPZV 0

New York LaGuardia Airport, United States
Use only for reference purposes



Not for navigational purposes.